createdAt,value
2022-08-11T00:01:37.251Z,17.60
2022-08-11T00:04:40.104Z,17.57
2022-08-11T00:07:45.456Z,17.56
2022-08-11T00:10:56.419Z,17.52
2022-08-11T00:13:59.499Z,17.49
2022-08-11T00:17:16.035Z,17.49
2022-08-11T00:20:20.173Z,17.43
2022-08-11T00:23:22.205Z,17.40
2022-08-11T00:26:26.797Z,17.39
2022-08-11T00:29:28.826Z,17.36
2022-08-11T00:32:32.386Z,17.28
2022-08-11T00:35:55.547Z,17.27
2022-08-11T00:39:04.960Z,17.23
2022-08-11T00:42:25.677Z,17.19
2022-08-11T00:45:38.235Z,17.18
2022-08-11T00:48:49.439Z,17.13
2022-08-11T00:52:15.247Z,17.15
2022-08-11T00:55:47.171Z,17.15
2022-08-11T00:59:32.205Z,17.14
2022-08-11T01:03:05.119Z,17.14
2022-08-11T01:06:32.737Z,17.15
2022-08-11T01:09:41.958Z,17.16
2022-08-11T01:13:13.973Z,17.16
2022-08-11T01:16:52.999Z,17.16
2022-08-11T01:20:46.774Z,17.15
2022-08-11T01:24:22.867Z,17.17
2022-08-11T01:27:43.411Z,17.19
2022-08-11T01:30:56.110Z,17.14
2022-08-11T01:34:17.159Z,17.12
2022-08-11T01:37:59.362Z,17.08
2022-08-11T01:41:52.664Z,17.06
2022-08-11T01:45:09.243Z,17.04
2022-08-11T01:48:29.999Z,16.85
2022-08-11T01:52:04.077Z,16.68
2022-08-11T01:55:37.649Z,16.48
2022-08-11T01:58:49.149Z,16.30
2022-08-11T02:02:21.482Z,16.15
2022-08-11T02:05:39.878Z,16.04
2022-08-11T02:08:59.208Z,15.90
2022-08-11T02:12:28.108Z,15.86
2022-08-11T02:15:50.430Z,15.79
2022-08-11T02:19:32.551Z,15.74
2022-08-11T02:23:11.568Z,15.71
2022-08-11T02:26:41.331Z,15.66
2022-08-11T02:30:07.555Z,15.61
2022-08-11T02:33:27.560Z,15.56
2022-08-11T02:36:43.266Z,15.53
2022-08-11T02:40:31.225Z,15.51
2022-08-11T02:43:38.918Z,15.51
2022-08-11T02:46:57.014Z,15.49
2022-08-11T02:50:15.984Z,15.50
2022-08-11T02:53:31.763Z,15.47
2022-08-11T02:56:44.799Z,15.47
2022-08-11T03:00:17.764Z,15.47
2022-08-11T03:03:27.754Z,15.49
2022-08-11T03:06:52.588Z,15.50
2022-08-11T03:10:02.862Z,15.52
2022-08-11T03:13:41.514Z,15.51
2022-08-11T03:17:07.739Z,15.52
2022-08-11T03:20:25.561Z,15.51
2022-08-11T03:24:26.020Z,15.50
2022-08-11T03:27:27.650Z,15.48
2022-08-11T03:30:47.206Z,15.45
2022-08-11T03:34:07.206Z,15.43
2022-08-11T03:37:57.750Z,15.40
2022-08-11T03:42:03.830Z,15.39
2022-08-11T03:45:28.554Z,15.38
2022-08-11T03:48:51.717Z,15.37
2022-08-11T03:52:05.470Z,15.36
2022-08-11T03:55:37.924Z,15.37
2022-08-11T03:58:48.668Z,15.35
2022-08-11T04:02:28.910Z,15.33
2022-08-11T04:06:09.427Z,15.31
2022-08-11T04:09:54.754Z,15.29
2022-08-11T04:13:33.967Z,15.28
2022-08-11T04:16:47.187Z,15.25
2022-08-11T04:19:54.860Z,15.23
2022-08-11T04:23:11.854Z,15.26
2022-08-11T04:27:14.399Z,15.27
2022-08-11T04:30:49.223Z,15.26
2022-08-11T04:34:13.256Z,15.25
2022-08-11T04:37:34.491Z,15.26
2022-08-11T04:41:21.309Z,15.26
2022-08-11T04:44:56.074Z,15.27
2022-08-11T04:48:53.353Z,15.31
2022-08-11T04:52:38.974Z,15.33
2022-08-11T04:56:35.847Z,15.34
2022-08-11T05:00:22.742Z,15.37
2022-08-11T05:03:40.630Z,15.39
2022-08-11T05:07:19.820Z,15.42
2022-08-11T05:11:06.459Z,15.44
2022-08-11T05:14:35.830Z,15.47
2022-08-11T05:17:58.033Z,15.49
2022-08-11T05:21:25.985Z,15.53
2022-08-11T05:24:55.800Z,15.58
2022-08-11T05:28:31.309Z,15.66
2022-08-11T05:31:55.828Z,15.72
2022-08-11T05:35:04.268Z,15.76
2022-08-11T05:38:35.132Z,15.79
2022-08-11T05:41:55.729Z,15.84
2022-08-11T05:45:24.193Z,15.87
2022-08-11T05:48:52.548Z,15.93
2022-08-11T05:52:14.428Z,15.98
2022-08-11T05:56:02.167Z,16.04
2022-08-11T05:58:59.829Z,16.10
2022-08-11T06:02:07.454Z,16.17
2022-08-11T06:05:09.598Z,16.21
2022-08-11T06:08:13.884Z,16.28
2022-08-11T06:11:20.122Z,16.35
2022-08-11T06:14:44.469Z,16.42
2022-08-11T06:17:48.787Z,16.47
2022-08-11T06:20:56.436Z,16.53
2022-08-11T06:23:59.906Z,16.62
2022-08-11T06:27:18.888Z,16.65
2022-08-11T06:30:35.091Z,16.74
2022-08-11T06:33:48.396Z,16.82
2022-08-11T06:37:19.650Z,16.92
2022-08-11T06:40:41.875Z,16.97
2022-08-11T06:44:23.150Z,17.04
2022-08-11T06:47:29.375Z,17.12
2022-08-11T06:50:51.063Z,17.23
2022-08-11T06:54:04.412Z,17.35
2022-08-11T06:57:31.715Z,17.41
2022-08-11T07:00:35.189Z,17.46
2022-08-11T07:03:43.610Z,17.53
2022-08-11T07:07:17.798Z,17.63
2022-08-11T07:10:59.430Z,17.73
2022-08-11T07:14:21.689Z,17.82
2022-08-11T07:17:25.957Z,17.91
2022-08-11T07:20:46.374Z,17.99
2022-08-11T07:24:06.883Z,18.12
2022-08-11T07:27:39.359Z,18.26
2022-08-11T07:30:43.424Z,18.40
2022-08-11T07:34:08.529Z,18.47
2022-08-11T07:37:18.090Z,18.60
2022-08-11T07:40:27.625Z,18.74
2022-08-11T07:43:29.850Z,18.82
2022-08-11T07:46:53.049Z,18.89
2022-08-11T07:50:13.290Z,19.04
2022-08-11T07:53:15.920Z,19.14
2022-08-11T07:56:28.114Z,19.21
2022-08-11T08:00:04.622Z,19.30
2022-08-11T08:03:37.870Z,19.43
2022-08-11T08:07:15.610Z,19.55
2022-08-11T08:10:39.086Z,19.65
2022-08-11T08:14:01.747Z,19.74
2022-08-11T08:17:22.618Z,19.87
2022-08-11T08:20:31.163Z,19.98
2022-08-11T08:23:33.663Z,20.08
2022-08-11T08:26:55.770Z,20.18
2022-08-11T08:30:17.610Z,20.31
2022-08-11T08:33:28.385Z,20.50
2022-08-11T08:36:30.570Z,20.67
2022-08-11T08:39:39.256Z,20.82
2022-08-11T08:42:48.444Z,20.98
2022-08-11T08:45:55.788Z,21.13
2022-08-11T08:49:02.002Z,21.26
2022-08-11T08:52:27.927Z,21.40
2022-08-11T08:55:30.759Z,21.53
2022-08-11T08:58:36.628Z,21.67
2022-08-11T09:01:56.158Z,21.87
2022-08-11T09:04:59.319Z,22.03
2022-08-11T09:08:02.142Z,22.15
2022-08-11T09:11:24.385Z,22.26
2022-08-11T09:14:56.870Z,22.37
2022-08-11T09:18:09.351Z,22.49
2022-08-11T09:21:44.603Z,22.66
2022-08-11T09:24:58.348Z,22.82
2022-08-11T09:28:00.577Z,22.86
2022-08-11T09:31:02.837Z,23.02
2022-08-11T09:34:04.977Z,23.16
2022-08-11T09:37:54.687Z,23.35
2022-08-11T09:40:52.704Z,23.49
2022-08-11T09:44:18.740Z,23.54
2022-08-11T09:47:22.575Z,23.70
2022-08-11T09:50:24.837Z,23.82
2022-08-11T09:53:40.761Z,23.90
2022-08-11T09:57:05.322Z,23.93
2022-08-11T10:00:13.326Z,24.06
2022-08-11T10:03:21.700Z,24.21
2022-08-11T10:06:43.877Z,24.35
2022-08-11T10:10:01.732Z,24.60
2022-08-11T10:14:30.471Z,24.73
2022-08-11T10:16:35.761Z,24.84
2022-08-11T10:19:39.032Z,24.96
2022-08-11T10:23:01.509Z,25.10
2022-08-11T10:26:25.251Z,25.29
2022-08-11T10:29:51.926Z,25.47
2022-08-11T10:33:12.630Z,25.61
2022-08-11T10:36:52.918Z,25.63
2022-08-11T10:39:56.913Z,25.62
2022-08-11T10:43:03.537Z,25.67
2022-08-11T10:46:30.247Z,25.75
2022-08-11T10:49:33.205Z,25.94
2022-08-11T10:52:56.181Z,26.10
2022-08-11T10:56:17.919Z,26.23
2022-08-11T10:59:20.753Z,26.23
2022-08-11T11:02:24.340Z,26.33
2022-08-11T11:05:30.678Z,26.56
2022-08-11T11:08:57.629Z,26.67
2022-08-11T11:12:38.032Z,26.69
2022-08-11T11:16:01.168Z,26.68
2022-08-11T11:19:06.407Z,26.70
2022-08-11T11:22:31.272Z,26.75
2022-08-11T11:26:06.826Z,26.85
2022-08-11T11:29:48.081Z,26.95
2022-08-11T11:33:20.626Z,27.15
2022-08-11T11:36:40.539Z,27.50
2022-08-11T11:39:43.822Z,27.63
2022-08-11T11:42:46.313Z,27.88
2022-08-11T11:45:48.437Z,28.10
2022-08-11T11:48:50.758Z,28.16
2022-08-11T11:51:55.271Z,28.14
2022-08-11T11:54:58.403Z,28.14
2022-08-11T11:58:22.250Z,28.26
2022-08-11T12:01:25.631Z,28.51
2022-08-11T12:04:29.122Z,28.67
2022-08-11T12:07:56.964Z,28.93
2022-08-11T12:11:32.509Z,29.20
2022-08-11T12:14:36.670Z,29.40
2022-08-11T12:17:39.431Z,29.57
2022-08-11T12:20:43.283Z,29.63
2022-08-11T12:24:06.967Z,29.69
2022-08-11T12:27:25.718Z,29.89
2022-08-11T12:30:29.269Z,30.16
2022-08-11T12:33:34.134Z,30.40
2022-08-11T12:36:40.290Z,30.56
2022-08-11T12:40:15.794Z,30.67
2022-08-11T12:43:56.439Z,30.85
2022-08-11T12:47:02.071Z,30.98
2022-08-11T12:50:23.783Z,31.10
2022-08-11T12:53:30.033Z,31.12
2022-08-11T12:57:01.266Z,31.09
2022-08-11T13:00:24.336Z,31.14
2022-08-11T13:03:45.374Z,31.42
2022-08-11T13:06:55.040Z,31.68
2022-08-11T13:09:58.239Z,31.86
2022-08-11T13:12:59.965Z,32.03
2022-08-11T13:16:01.902Z,32.18
2022-08-11T13:19:04.080Z,32.31
2022-08-11T13:22:07.552Z,32.38
2022-08-11T13:25:14.874Z,32.50
2022-08-11T13:28:21.451Z,32.59
2022-08-11T13:31:23.849Z,32.53
2022-08-11T13:34:27.945Z,32.66
2022-08-11T13:38:18.677Z,32.76
2022-08-11T13:40:56.433Z,32.88
2022-08-11T13:43:59.812Z,32.83
2022-08-11T13:47:08.020Z,32.82
2022-08-11T13:50:12.743Z,32.93
2022-08-11T13:53:20.372Z,32.99
2022-08-11T13:56:24.397Z,33.13
2022-08-11T13:59:29.820Z,33.29
2022-08-11T14:02:34.022Z,33.38
2022-08-11T14:05:49.640Z,33.44
2022-08-11T14:08:53.825Z,33.46
2022-08-11T14:12:23.623Z,33.54
2022-08-11T14:15:34.107Z,33.46
2022-08-11T14:18:43.182Z,33.39
2022-08-11T14:22:07.927Z,33.32
2022-08-11T14:25:12.496Z,33.30
2022-08-11T14:28:30.874Z,33.50
2022-08-11T14:31:39.007Z,33.76
2022-08-11T14:34:44.063Z,34.02
2022-08-11T14:37:47.677Z,34.14
2022-08-11T14:41:08.304Z,34.28
2022-08-11T14:44:30.700Z,34.05
2022-08-11T14:47:36.770Z,34.10
2022-08-11T14:50:39.587Z,34.13
2022-08-11T14:53:58.212Z,34.11
2022-08-11T14:57:03.334Z,34.21
2022-08-11T15:00:09.150Z,34.37
2022-08-11T15:03:15.399Z,34.40
2022-08-11T15:06:17.676Z,34.54
2022-08-11T15:09:20.071Z,34.58
2022-08-11T15:12:32.403Z,34.67
2022-08-11T15:15:55.285Z,34.60
2022-08-11T15:18:58.680Z,34.58
2022-08-11T15:22:22.858Z,34.64
2022-08-11T15:25:29.715Z,34.71
2022-08-11T15:29:07.879Z,34.75
2022-08-11T15:32:24.420Z,34.74
2022-08-11T15:35:47.055Z,34.79
2022-08-11T15:39:21.015Z,34.93
2022-08-11T15:42:41.901Z,34.97
2022-08-11T15:45:52.682Z,34.86
2022-08-11T15:49:08.759Z,34.94
2022-08-11T15:52:15.450Z,34.89
2022-08-11T15:55:19.108Z,34.91
2022-08-11T15:58:44.909Z,34.88
2022-08-11T16:02:08.354Z,34.73
2022-08-11T16:05:14.277Z,34.80
2022-08-11T16:08:40.783Z,34.83
2022-08-11T16:11:45.933Z,34.92
2022-08-11T16:15:12.933Z,34.97
2022-08-11T16:18:19.519Z,35.04
2022-08-11T16:21:34.569Z,34.99
2022-08-11T16:27:02.681Z,35.00
2022-08-11T16:28:09.685Z,35.00
2022-08-11T16:31:17.388Z,35.11
2022-08-11T16:34:38.609Z,35.23
2022-08-11T16:38:02.362Z,35.35
2022-08-11T16:41:11.701Z,35.53
2022-08-11T16:44:37.834Z,35.64
2022-08-11T16:48:02.296Z,35.65
2022-08-11T16:51:05.714Z,35.56
2022-08-11T16:54:08.089Z,35.55
2022-08-11T16:57:33.949Z,35.48
2022-08-11T17:00:37.370Z,35.42
2022-08-11T17:04:05.809Z,35.38
2022-08-11T17:07:42.528Z,35.35
2022-08-11T17:11:08.343Z,35.29
2022-08-11T17:14:58.058Z,35.15
2022-08-11T17:18:03.169Z,35.09
2022-08-11T17:21:05.645Z,35.01
2022-08-11T17:24:14.292Z,34.84
2022-08-11T17:27:19.763Z,34.67
2022-08-11T17:30:43.626Z,34.57
2022-08-11T17:34:05.458Z,34.39
2022-08-11T17:37:07.575Z,34.21
2022-08-11T17:40:12.479Z,34.03
2022-08-11T17:43:33.167Z,33.84
2022-08-11T17:46:55.506Z,33.72
2022-08-11T17:50:16.490Z,33.51
2022-08-11T17:53:39.092Z,33.22
2022-08-11T17:56:59.665Z,32.86
2022-08-11T18:00:03.499Z,32.47
2022-08-11T18:03:33.743Z,32.07
2022-08-11T18:06:37.659Z,31.38
2022-08-11T18:09:57.973Z,30.64
2022-08-11T18:13:20.309Z,29.89
2022-08-11T18:16:41.650Z,29.29
2022-08-11T18:20:02.040Z,28.80
2022-08-11T18:23:46.574Z,28.37
2022-08-11T18:27:10.219Z,27.95
2022-08-11T18:30:31.263Z,27.64
2022-08-11T18:34:08.341Z,27.34
2022-08-11T18:37:44.765Z,27.07
2022-08-11T18:41:08.311Z,26.83
2022-08-11T18:44:34.381Z,26.61
2022-08-11T18:47:57.169Z,26.39
2022-08-11T18:51:31.360Z,26.15
2022-08-11T18:55:00.243Z,25.93
2022-08-11T18:58:25.772Z,25.73
2022-08-11T19:01:47.667Z,25.56
2022-08-11T19:05:09.496Z,25.41
2022-08-11T19:08:35.605Z,25.28
2022-08-11T19:11:59.891Z,25.12
2022-08-11T19:15:22.207Z,25.00
2022-08-11T19:18:44.602Z,24.92
2022-08-11T19:22:06.260Z,24.82
2022-08-11T19:25:29.219Z,24.71
2022-08-11T19:28:52.958Z,24.59
2022-08-11T19:32:15.512Z,24.47
2022-08-11T19:35:37.935Z,24.37
2022-08-11T19:38:58.605Z,24.25
2022-08-11T19:42:20.496Z,24.15
2022-08-11T19:45:41.771Z,24.07
2022-08-11T19:49:11.073Z,23.99
2022-08-11T19:52:33.475Z,23.92
2022-08-11T19:55:54.669Z,23.84
2022-08-11T19:59:17.389Z,23.77
2022-08-11T20:02:38.343Z,23.70
2022-08-11T20:06:01.283Z,23.61
2022-08-11T20:09:23.129Z,23.57
2022-08-11T20:12:47.285Z,23.48
2022-08-11T20:16:09.252Z,23.39
2022-08-11T20:19:55.387Z,23.28
2022-08-11T20:23:12.578Z,23.17
2022-08-11T20:26:33.661Z,23.06
2022-08-11T20:29:55.094Z,22.98
2022-08-11T20:33:16.573Z,22.93
2022-08-11T20:36:37.855Z,22.84
2022-08-11T20:40:01.385Z,22.76
2022-08-11T20:44:06.465Z,22.71
2022-08-11T20:47:06.169Z,22.63
2022-08-11T20:50:34.667Z,22.51
2022-08-11T20:54:00.070Z,22.38
2022-08-11T21:01:16.205Z,22.11
2022-08-11T21:04:54.787Z,21.97
2022-08-11T21:08:15.929Z,21.85
2022-08-11T21:11:37.872Z,21.72
2022-08-11T21:14:59.696Z,21.62
2022-08-11T21:18:29.479Z,21.52
2022-08-11T21:21:51.638Z,21.44
2022-08-11T21:25:17.091Z,21.37
2022-08-11T21:28:40.349Z,21.28
2022-08-11T21:32:03.372Z,21.18
2022-08-11T21:35:24.525Z,21.08
2022-08-11T21:38:48.124Z,21.03
2022-08-11T21:42:09.564Z,21.01
2022-08-11T21:45:32.984Z,20.95
2022-08-11T21:48:55.758Z,20.89
2022-08-11T21:52:16.691Z,20.79
2022-08-11T21:55:38.092Z,20.71
2022-08-11T21:59:07.381Z,20.58
2022-08-11T22:02:27.983Z,20.38
2022-08-11T22:05:49.651Z,20.26
2022-08-11T22:09:10.238Z,20.19
2022-08-11T22:12:41.266Z,20.15
2022-08-11T22:16:05.937Z,20.07
2022-08-11T22:19:27.622Z,20.01
2022-08-11T22:22:53.044Z,19.94
2022-08-11T22:26:14.081Z,19.88
2022-08-11T22:29:50.052Z,19.81
2022-08-11T22:33:12.528Z,19.74
2022-08-11T22:36:36.451Z,19.67
2022-08-11T22:40:01.982Z,19.61
2022-08-11T22:43:23.216Z,19.57
2022-08-11T22:46:43.716Z,19.52
2022-08-11T22:50:11.402Z,19.45
2022-08-11T22:53:57.470Z,19.41
2022-08-11T22:57:15.421Z,19.36
2022-08-11T23:00:35.958Z,19.35
2022-08-11T23:03:56.685Z,19.35
2022-08-11T23:07:49.366Z,19.36
2022-08-11T23:11:01.234Z,19.37
2022-08-11T23:14:22.850Z,19.34
2022-08-11T23:17:43.757Z,19.31
2022-08-11T23:21:05.333Z,19.31
2022-08-11T23:24:26.934Z,19.27
2022-08-11T23:27:47.620Z,19.26
2022-08-11T23:31:12.388Z,19.20
2022-08-11T23:35:03.621Z,19.16
2022-08-11T23:38:19.184Z,19.12
2022-08-11T23:41:40.063Z,19.01
2022-08-11T23:45:00.374Z,18.91
2022-08-11T23:48:21.668Z,18.83
2022-08-11T23:51:44.020Z,18.78
2022-08-11T23:55:04.681Z,18.73
2022-08-11T23:58:26.097Z,18.68
